createdAt,value
2019-03-30T00:00:52.637Z,55.58
2019-03-30T00:03:19.259Z,52.03
2019-03-30T00:05:46.005Z,54.03
2019-03-30T00:08:12.745Z,54.88
2019-03-30T00:10:40.613Z,55.88
2019-03-30T00:13:07.271Z,57.75
2019-03-30T00:15:33.958Z,50.75
2019-03-30T00:18:00.584Z,57.35
2019-03-30T00:20:27.365Z,53.15
2019-03-30T00:22:54.107Z,53.28
2019-03-30T00:25:20.845Z,49.65
2019-03-30T00:27:47.598Z,51.45
2019-03-30T00:30:14.292Z,47.62
2019-03-30T00:32:41.018Z,43.02
2019-03-30T00:35:07.750Z,47.90
2019-03-30T00:37:34.487Z,44.93
2019-03-30T00:40:01.111Z,48.30
2019-03-30T00:42:28.783Z,42.85
2019-03-30T00:44:55.482Z,53.92
2019-03-30T00:47:22.105Z,51.42
2019-03-30T00:49:50.218Z,55.50
2019-03-30T00:52:17.135Z,47.23
2019-03-30T00:54:43.756Z,49.65
2019-03-30T00:57:10.495Z,51.42
2019-03-30T00:59:37.188Z,47.90
2019-03-30T01:02:03.839Z,54.83
2019-03-30T01:04:30.563Z,58.38
2019-03-30T01:06:57.262Z,61.68
2019-03-30T01:09:23.995Z,55.78
2019-03-30T01:11:50.836Z,55.75
2019-03-30T01:14:17.674Z,56.28
2019-03-30T01:16:44.319Z,60.45
2019-03-30T01:19:11.054Z,57.40
2019-03-30T01:21:38.305Z,49.95
2019-03-30T01:24:05.041Z,54.45
2019-03-30T01:26:31.782Z,54.23
2019-03-30T01:28:58.620Z,52.95
2019-03-30T01:31:26.484Z,48.65
2019-03-30T01:33:53.224Z,51.88
2019-03-30T01:36:19.971Z,55.65
2019-03-30T01:38:46.602Z,54.90
2019-03-30T01:41:13.369Z,49.48
2019-03-30T01:43:40.046Z,50.50
2019-03-30T01:46:06.654Z,48.28
2019-03-30T01:48:33.358Z,55.00
2019-03-30T01:51:00.190Z,50.63
2019-03-30T01:53:26.836Z,47.10
2019-03-30T01:55:53.468Z,52.05
2019-03-30T01:58:20.157Z,54.13
2019-03-30T02:00:46.756Z,50.98
2019-03-30T02:03:13.382Z,52.75
2019-03-30T02:05:40.073Z,55.35
2019-03-30T02:08:06.749Z,50.85
2019-03-30T02:10:39.854Z,49.80
2019-03-30T02:13:07.512Z,51.68
2019-03-30T02:15:34.227Z,57.20
2019-03-30T02:18:00.921Z,58.90
2019-03-30T02:20:36.900Z,55.03
2019-03-30T02:23:03.487Z,56.02
2019-03-30T02:25:30.217Z,52.15
2019-03-30T02:27:56.955Z,53.87
2019-03-30T02:30:24.314Z,54.60
2019-03-30T02:32:51.060Z,61.55
2019-03-30T02:35:17.787Z,59.80
2019-03-30T02:37:44.431Z,55.83
2019-03-30T02:40:11.164Z,52.67
2019-03-30T02:42:37.913Z,53.60
2019-03-30T02:45:05.540Z,46.95
2019-03-30T02:47:33.540Z,50.73
2019-03-30T02:50:00.579Z,47.62
2019-03-30T02:52:27.334Z,51.08
2019-03-30T02:54:54.033Z,47.88
2019-03-30T02:57:20.762Z,43.25
2019-03-30T02:59:47.501Z,49.25
2019-03-30T03:02:14.285Z,42.53
2019-03-30T03:04:41.013Z,44.73
2019-03-30T03:07:07.610Z,49.98
2019-03-30T03:09:34.257Z,48.23
2019-03-30T03:12:01.024Z,50.58
2019-03-30T03:14:27.898Z,50.67
2019-03-30T03:16:54.615Z,52.15
2019-03-30T03:19:21.276Z,51.40
2019-03-30T03:21:47.901Z,50.38
2019-03-30T03:24:14.635Z,50.08
2019-03-30T03:26:41.346Z,52.20
2019-03-30T03:29:08.098Z,47.15
2019-03-30T03:31:34.905Z,46.83
2019-03-30T03:34:01.606Z,47.78
2019-03-30T03:36:28.218Z,42.62
2019-03-30T03:38:54.991Z,47.80
2019-03-30T03:41:21.712Z,46.33
2019-03-30T03:43:48.448Z,44.33
2019-03-30T03:46:15.067Z,43.87
2019-03-30T03:48:41.810Z,42.65
2019-03-30T03:51:24.754Z,42.30
2019-03-30T03:53:38.021Z,42.80
2019-03-30T03:56:04.730Z,43.10
2019-03-30T03:58:33.457Z,41.77
2019-03-30T04:01:01.275Z,41.53
2019-03-30T04:03:31.030Z,41.58
2019-03-30T04:05:58.025Z,41.83
2019-03-30T04:08:27.305Z,42.25
2019-03-30T04:10:55.342Z,39.05
2019-03-30T04:13:25.603Z,41.25
2019-03-30T04:15:52.394Z,40.28
2019-03-30T04:18:19.187Z,40.30
2019-03-30T04:20:45.989Z,38.35
2019-03-30T04:23:12.675Z,42.93
2019-03-30T04:25:39.393Z,42.40
2019-03-30T04:28:06.027Z,44.42
2019-03-30T04:30:32.660Z,40.55
2019-03-30T04:32:59.332Z,40.43
2019-03-30T04:35:26.053Z,43.08
2019-03-30T04:37:52.771Z,39.95
2019-03-30T04:40:19.483Z,40.58
2019-03-30T04:42:46.211Z,42.43
2019-03-30T04:45:12.866Z,45.63
2019-03-30T04:47:39.588Z,40.33
2019-03-30T04:50:06.579Z,40.52
2019-03-30T04:52:33.188Z,37.13
2019-03-30T04:54:59.854Z,41.30
2019-03-30T04:57:26.471Z,36.98
2019-03-30T04:59:53.122Z,38.67
2019-03-30T05:02:19.771Z,40.10
2019-03-30T05:04:46.561Z,40.52
2019-03-30T05:07:13.463Z,40.08
2019-03-30T05:09:40.186Z,38.48
2019-03-30T05:12:06.817Z,42.03
2019-03-30T05:14:33.410Z,36.45
2019-03-30T05:17:00.163Z,36.20
2019-03-30T05:19:26.895Z,40.85
2019-03-30T05:21:53.540Z,37.85
2019-03-30T05:24:20.249Z,40.33
2019-03-30T05:26:46.865Z,40.30
2019-03-30T05:29:13.514Z,38.67
2019-03-30T05:31:41.226Z,37.17
2019-03-30T05:34:07.893Z,36.05
2019-03-30T05:36:34.537Z,37.90
2019-03-30T05:39:01.266Z,39.50
2019-03-30T05:41:29.583Z,39.25
2019-03-30T05:43:56.263Z,43.28
2019-03-30T05:46:22.944Z,35.17
2019-03-30T05:48:49.597Z,34.83
2019-03-30T05:51:16.299Z,29.27
2019-03-30T05:53:42.986Z,36.30
2019-03-30T05:56:09.694Z,34.85
2019-03-30T05:58:36.491Z,33.18
2019-03-30T06:01:03.227Z,35.88
2019-03-30T06:03:29.821Z,41.45
2019-03-30T06:05:56.509Z,47.53
2019-03-30T06:08:23.204Z,60.40
2019-03-30T06:10:49.926Z,54.25
2019-03-30T06:13:16.692Z,41.30
2019-03-30T06:15:43.420Z,44.42
2019-03-30T06:18:11.493Z,37.25
2019-03-30T06:20:38.319Z,46.70
2019-03-30T06:23:05.128Z,40.55
2019-03-30T06:25:31.770Z,67.10
2019-03-30T06:27:58.518Z,53.50
2019-03-30T06:30:26.734Z,49.50
2019-03-30T06:32:53.545Z,48.20
2019-03-30T06:35:20.233Z,47.23
2019-03-30T06:37:46.927Z,47.73
2019-03-30T06:40:14.239Z,45.58
2019-03-30T06:42:40.917Z,48.28
2019-03-30T06:45:07.785Z,49.42
2019-03-30T06:47:34.480Z,41.83
2019-03-30T06:50:01.285Z,42.83
2019-03-30T06:52:28.027Z,43.85
2019-03-30T06:54:54.713Z,44.53
2019-03-30T06:57:21.386Z,35.70
2019-03-30T06:59:48.110Z,41.23
2019-03-30T07:02:15.150Z,43.65
2019-03-30T07:04:41.836Z,43.65
2019-03-30T07:07:09.209Z,40.98
2019-03-30T07:09:37.807Z,35.75
2019-03-30T07:12:05.812Z,39.23
2019-03-30T07:14:36.148Z,40.58
2019-03-30T07:17:02.905Z,40.90
2019-03-30T07:19:32.082Z,40.65
2019-03-30T07:21:58.868Z,44.30
2019-03-30T07:24:25.513Z,42.43
2019-03-30T07:26:52.233Z,43.50
2019-03-30T07:29:18.922Z,40.10
2019-03-30T07:31:45.671Z,43.48
2019-03-30T07:34:12.410Z,41.18
2019-03-30T07:36:39.200Z,37.13
2019-03-30T07:39:05.913Z,39.60
2019-03-30T07:41:32.644Z,39.25
2019-03-30T07:43:59.322Z,35.88
2019-03-30T07:46:26.019Z,33.63
2019-03-30T07:48:52.767Z,33.67
2019-03-30T07:51:19.489Z,42.08
2019-03-30T07:53:46.115Z,38.53
2019-03-30T07:56:12.738Z,36.75
2019-03-30T07:58:39.488Z,42.15
2019-03-30T08:01:06.092Z,37.10
2019-03-30T08:03:32.712Z,31.68
2019-03-30T08:05:59.470Z,37.30
2019-03-30T08:08:26.070Z,30.68
2019-03-30T08:10:52.655Z,30.20
2019-03-30T08:13:19.342Z,32.48
2019-03-30T08:15:45.941Z,29.00
2019-03-30T08:18:12.549Z,35.00
2019-03-30T08:20:39.345Z,30.00
2019-03-30T08:23:05.946Z,33.88
2019-03-30T08:25:32.632Z,31.00
2019-03-30T08:27:59.353Z,29.48
2019-03-30T08:30:26.086Z,33.98
2019-03-30T08:32:52.862Z,29.07
2019-03-30T08:35:20.567Z,32.30
2019-03-30T08:37:47.192Z,29.32
2019-03-30T08:40:13.900Z,29.95
2019-03-30T08:42:40.583Z,31.10
2019-03-30T08:45:07.805Z,32.35
2019-03-30T08:47:34.546Z,29.42
2019-03-30T08:50:01.243Z,26.57
2019-03-30T08:52:27.874Z,28.40
2019-03-30T08:54:54.554Z,28.70
2019-03-30T08:57:22.355Z,29.05
2019-03-30T08:59:49.013Z,31.68
2019-03-30T09:02:15.714Z,29.07
2019-03-30T09:04:42.405Z,40.92
2019-03-30T09:07:09.089Z,29.37
2019-03-30T09:09:35.718Z,23.52
2019-03-30T09:12:02.445Z,23.62
2019-03-30T09:14:29.060Z,24.00
2019-03-30T09:16:55.737Z,24.82
2019-03-30T09:19:22.431Z,23.57
2019-03-30T09:21:49.154Z,19.70
2019-03-30T09:24:15.885Z,20.72
2019-03-30T09:26:42.597Z,19.98
2019-03-30T09:29:09.215Z,25.32
2019-03-30T09:31:36.844Z,22.55
2019-03-30T09:34:03.678Z,21.50
2019-03-30T09:36:30.288Z,25.35
2019-03-30T09:38:56.891Z,20.82
2019-03-30T09:41:23.579Z,18.90
2019-03-30T09:43:50.167Z,22.13
2019-03-30T09:46:16.828Z,20.85
2019-03-30T09:48:44.522Z,20.52
2019-03-30T09:51:11.111Z,20.62
2019-03-30T09:53:37.728Z,23.42
2019-03-30T09:56:04.411Z,26.23
2019-03-30T09:58:31.003Z,19.23
2019-03-30T10:00:57.713Z,19.00
2019-03-30T10:03:24.399Z,18.60
2019-03-30T10:05:51.234Z,18.80
2019-03-30T10:08:17.883Z,19.02
2019-03-30T10:10:44.603Z,21.17
2019-03-30T10:13:11.202Z,18.80
2019-03-30T10:15:38.026Z,18.20
2019-03-30T10:18:04.621Z,24.80
2019-03-30T10:20:31.343Z,22.00
2019-03-30T10:22:57.993Z,18.82
2019-03-30T10:25:24.694Z,16.52
2019-03-30T10:27:51.413Z,19.98
2019-03-30T10:30:18.085Z,16.73
2019-03-30T10:32:44.714Z,18.37
2019-03-30T10:35:11.450Z,19.85
2019-03-30T10:37:38.188Z,18.50
2019-03-30T10:40:08.822Z,18.90
2019-03-30T10:42:35.548Z,20.68
2019-03-30T10:45:03.461Z,18.17
2019-03-30T10:47:30.334Z,21.97
2019-03-30T10:49:57.042Z,22.10
2019-03-30T10:52:23.745Z,17.95
2019-03-30T10:54:53.064Z,17.87
2019-03-30T10:57:19.057Z,17.67
2019-03-30T10:59:45.678Z,17.12
2019-03-30T11:02:13.343Z,15.32
2019-03-30T11:04:40.068Z,15.35
2019-03-30T11:07:06.710Z,21.60
2019-03-30T11:09:33.443Z,18.67
2019-03-30T11:12:00.111Z,18.57
2019-03-30T11:14:26.747Z,18.00
2019-03-30T11:16:53.369Z,16.37
2019-03-30T11:19:20.094Z,17.52
2019-03-30T11:21:46.707Z,17.12
2019-03-30T11:24:13.451Z,16.15
2019-03-30T11:26:40.180Z,19.55
2019-03-30T11:29:06.793Z,16.73
2019-03-30T11:31:33.482Z,21.65
2019-03-30T11:34:00.189Z,18.07
2019-03-30T11:36:26.888Z,16.75
2019-03-30T11:38:53.537Z,14.70
2019-03-30T11:41:20.297Z,17.10
2019-03-30T11:43:46.908Z,16.07
2019-03-30T11:46:13.591Z,15.58
2019-03-30T11:48:40.358Z,16.55
2019-03-30T11:51:07.008Z,15.93
2019-03-30T11:53:33.633Z,12.80
2019-03-30T11:56:00.357Z,14.93
2019-03-30T11:58:26.970Z,16.00
2019-03-30T12:00:53.645Z,14.47
2019-03-30T12:03:20.340Z,16.93
2019-03-30T12:05:46.995Z,14.80
2019-03-30T12:08:13.651Z,15.38
2019-03-30T12:10:40.474Z,14.80
2019-03-30T12:13:07.219Z,18.17
2019-03-30T12:15:33.935Z,17.45
2019-03-30T12:18:00.658Z,17.73
2019-03-30T12:20:27.276Z,13.60
2019-03-30T12:22:53.961Z,19.67
2019-03-30T12:25:34.553Z,13.25
2019-03-30T12:27:50.010Z,14.93
2019-03-30T12:30:16.914Z,18.27
2019-03-30T12:32:43.681Z,17.02
2019-03-30T12:35:10.299Z,15.90
2019-03-30T12:37:37.006Z,16.87
2019-03-30T12:40:05.284Z,15.60
2019-03-30T12:42:31.930Z,14.85
2019-03-30T12:44:58.640Z,12.65
2019-03-30T12:47:25.349Z,16.40
2019-03-30T12:49:52.032Z,13.15
2019-03-30T12:52:18.670Z,16.62
2019-03-30T12:54:45.488Z,18.85
2019-03-30T12:57:12.152Z,16.80
2019-03-30T12:59:38.848Z,12.98
2019-03-30T13:02:05.578Z,16.48
2019-03-30T13:04:32.239Z,14.80
2019-03-30T13:06:58.898Z,13.62
2019-03-30T13:09:25.605Z,13.65
2019-03-30T13:11:52.210Z,15.28
2019-03-30T13:14:18.848Z,14.85
2019-03-30T13:16:45.639Z,15.55
2019-03-30T13:19:12.337Z,15.30
2019-03-30T13:21:52.078Z,16.97
2019-03-30T13:24:07.597Z,17.27
2019-03-30T13:26:34.278Z,13.50
2019-03-30T13:29:00.925Z,15.80
2019-03-30T13:31:27.634Z,13.38
2019-03-30T13:33:54.230Z,13.20
2019-03-30T13:36:22.707Z,17.42
2019-03-30T13:38:49.384Z,12.75
2019-03-30T13:41:16.124Z,16.37
2019-03-30T13:43:42.812Z,14.90
2019-03-30T13:46:09.541Z,16.27
2019-03-30T13:48:37.222Z,13.88
2019-03-30T13:51:03.862Z,13.95
2019-03-30T13:53:30.565Z,14.53
2019-03-30T13:55:57.249Z,13.55
2019-03-30T13:58:23.971Z,14.58
2019-03-30T14:00:50.651Z,11.68
2019-03-30T14:03:17.310Z,11.50
2019-03-30T14:05:43.954Z,13.90
2019-03-30T14:08:10.709Z,15.28
2019-03-30T14:10:39.004Z,12.15
2019-03-30T14:13:05.890Z,13.45
2019-03-30T14:15:32.555Z,12.98
2019-03-30T14:17:59.178Z,10.40
2019-03-30T14:20:26.073Z,9.63
2019-03-30T14:22:52.872Z,10.30
2019-03-30T14:25:19.503Z,9.35
2019-03-30T14:27:47.207Z,10.48
2019-03-30T14:30:14.444Z,13.03
2019-03-30T14:32:41.134Z,10.70
2019-03-30T14:35:07.856Z,8.68
2019-03-30T14:37:34.577Z,10.40
2019-03-30T14:40:01.165Z,10.28
2019-03-30T14:42:27.857Z,8.90
2019-03-30T14:44:54.523Z,8.75
2019-03-30T14:47:21.210Z,9.43
2019-03-30T14:49:47.852Z,9.75
2019-03-30T14:52:14.644Z,10.68
2019-03-30T14:54:52.012Z,8.38
2019-03-30T14:57:09.850Z,9.25
2019-03-30T14:59:36.519Z,8.58
2019-03-30T15:02:03.152Z,8.25
2019-03-30T15:04:29.798Z,11.25
2019-03-30T15:06:56.509Z,9.45
2019-03-30T15:09:23.116Z,11.48
2019-03-30T15:11:49.806Z,7.72
2019-03-30T15:14:16.512Z,11.40
2019-03-30T15:16:44.135Z,12.70
2019-03-30T15:19:10.793Z,8.35
2019-03-30T15:21:37.516Z,10.30
2019-03-30T15:24:04.360Z,11.20
2019-03-30T15:26:31.081Z,10.05
2019-03-30T15:28:57.857Z,9.43
2019-03-30T15:31:24.467Z,10.60
2019-03-30T15:33:53.325Z,9.15
2019-03-30T15:36:19.742Z,9.95
2019-03-30T15:38:46.472Z,7.85
2019-03-30T15:41:13.168Z,9.28
2019-03-30T15:43:39.919Z,8.03
2019-03-30T15:46:06.519Z,8.40
2019-03-30T15:48:33.187Z,9.50
2019-03-30T15:50:59.879Z,8.33
2019-03-30T15:53:26.512Z,8.63
2019-03-30T15:55:53.213Z,9.28
2019-03-30T15:58:19.972Z,8.95
2019-03-30T16:00:46.729Z,7.83
2019-03-30T16:03:13.390Z,7.28
2019-03-30T16:05:40.080Z,8.33
2019-03-30T16:08:06.684Z,9.30
2019-03-30T16:10:33.367Z,8.25
2019-03-30T16:13:00.074Z,10.23
2019-03-30T16:15:26.725Z,7.55
2019-03-30T16:17:53.362Z,8.05
2019-03-30T16:20:20.069Z,8.38
2019-03-30T16:22:46.703Z,7.47
2019-03-30T16:25:13.523Z,8.40
2019-03-30T16:27:40.261Z,7.80
2019-03-30T16:30:07.679Z,9.48
2019-03-30T16:32:34.301Z,6.95
2019-03-30T16:35:01.066Z,10.90
2019-03-30T16:37:27.652Z,8.50
2019-03-30T16:39:54.308Z,10.23
2019-03-30T16:42:21.026Z,8.70
2019-03-30T16:44:47.730Z,8.83
2019-03-30T16:47:14.430Z,9.43
2019-03-30T16:49:41.167Z,9.70
2019-03-30T16:52:07.841Z,10.90
2019-03-30T16:54:34.537Z,11.95
2019-03-30T16:57:01.226Z,9.10
2019-03-30T16:59:27.990Z,8.18
2019-03-30T17:01:54.700Z,8.68
2019-03-30T17:04:21.441Z,10.32
2019-03-30T17:06:48.052Z,7.92
2019-03-30T17:09:14.719Z,9.55
2019-03-30T17:11:41.426Z,11.40
2019-03-30T17:14:08.136Z,12.23
2019-03-30T17:16:36.757Z,8.05
2019-03-30T17:19:03.453Z,10.60
2019-03-30T17:21:30.074Z,13.72
2019-03-30T17:23:56.899Z,11.00
2019-03-30T17:26:23.516Z,11.68
2019-03-30T17:28:50.153Z,9.03
2019-03-30T17:31:16.932Z,11.20
2019-03-30T17:33:43.593Z,14.58
2019-03-30T17:36:10.252Z,10.82
2019-03-30T17:38:36.944Z,11.35
2019-03-30T17:41:03.691Z,14.78
2019-03-30T17:43:30.372Z,14.23
2019-03-30T17:45:57.097Z,18.98
2019-03-30T17:48:23.712Z,14.43
2019-03-30T17:50:50.461Z,20.55
2019-03-30T17:53:17.126Z,19.65
2019-03-30T17:55:43.839Z,14.95
2019-03-30T17:58:13.294Z,18.55
2019-03-30T18:00:39.132Z,21.52
2019-03-30T18:03:05.809Z,15.28
2019-03-30T18:05:33.473Z,17.20
2019-03-30T18:08:01.860Z,17.52
2019-03-30T18:10:28.582Z,18.45
2019-03-30T18:12:55.274Z,18.00
2019-03-30T18:15:21.939Z,15.63
2019-03-30T18:17:51.340Z,18.55
2019-03-30T18:20:17.984Z,40.67
2019-03-30T18:22:44.735Z,67.90
2019-03-30T18:25:11.960Z,28.05
2019-03-30T18:27:38.621Z,24.07
2019-03-30T18:30:06.411Z,22.00
2019-03-30T18:32:34.075Z,33.08
2019-03-30T18:35:02.021Z,19.75
2019-03-30T18:37:29.290Z,18.35
2019-03-30T18:39:55.890Z,20.12
2019-03-30T18:42:22.574Z,19.87
2019-03-30T18:44:50.571Z,20.37
2019-03-30T18:47:17.410Z,20.20
2019-03-30T18:49:44.160Z,62.43
2019-03-30T18:52:11.141Z,39.18
2019-03-30T18:54:39.352Z,40.20
2019-03-30T18:57:06.051Z,52.83
2019-03-30T18:59:32.776Z,53.02
2019-03-30T19:01:59.510Z,44.80
2019-03-30T19:04:26.123Z,38.17
2019-03-30T19:06:52.819Z,39.67
2019-03-30T19:09:19.515Z,35.25
2019-03-30T19:11:46.237Z,36.23
2019-03-30T19:14:12.959Z,32.10
2019-03-30T19:16:39.658Z,41.18
2019-03-30T19:19:06.273Z,30.80
2019-03-30T19:21:32.958Z,31.57
2019-03-30T19:23:59.727Z,31.48
2019-03-30T19:26:26.451Z,33.42
2019-03-30T19:28:56.563Z,38.78
2019-03-30T19:31:21.774Z,38.17
2019-03-30T19:33:48.471Z,41.35
2019-03-30T19:36:15.127Z,41.00
2019-03-30T19:38:41.861Z,38.58
2019-03-30T19:41:08.470Z,40.58
2019-03-30T19:43:35.205Z,39.10
2019-03-30T19:46:02.504Z,43.13
2019-03-30T19:48:30.019Z,41.10
2019-03-30T19:50:56.737Z,40.95
2019-03-30T19:53:23.479Z,59.73
2019-03-30T19:55:50.083Z,48.83
2019-03-30T19:58:16.794Z,53.60
2019-03-30T20:00:43.458Z,44.25
2019-03-30T20:03:10.148Z,41.70
2019-03-30T20:05:36.883Z,40.88
2019-03-30T20:08:12.037Z,39.73
2019-03-30T20:10:32.290Z,44.90
2019-03-30T20:12:59.855Z,46.35
2019-03-30T20:15:26.592Z,43.50
2019-03-30T20:17:53.209Z,40.92
2019-03-30T20:20:19.890Z,44.13
2019-03-30T20:22:46.586Z,62.05
2019-03-30T20:25:13.221Z,49.33
2019-03-30T20:27:39.869Z,44.05
2019-03-30T20:30:08.523Z,43.63
2019-03-30T20:32:35.134Z,42.38
2019-03-30T20:35:01.878Z,43.55
2019-03-30T20:37:28.564Z,49.35
2019-03-30T20:39:55.264Z,50.15
2019-03-30T20:42:22.062Z,58.55
2019-03-30T20:44:48.754Z,57.95
2019-03-30T20:47:15.586Z,53.23
2019-03-30T20:49:42.289Z,51.35
2019-03-30T20:52:09.025Z,53.28
2019-03-30T20:54:36.812Z,48.92
2019-03-30T20:57:03.544Z,46.55
2019-03-30T20:59:39.814Z,44.30
2019-03-30T21:01:58.812Z,43.30
2019-03-30T21:04:25.546Z,46.42
2019-03-30T21:06:54.797Z,43.75
2019-03-30T21:09:21.410Z,119.45
2019-03-30T21:11:48.166Z,62.38
2019-03-30T21:14:14.839Z,51.98
2019-03-30T21:16:41.577Z,53.85
2019-03-30T21:19:08.273Z,51.95
2019-03-30T21:21:34.972Z,47.58
2019-03-30T21:24:01.597Z,49.40
2019-03-30T21:26:28.721Z,48.55
2019-03-30T21:28:55.648Z,47.05
2019-03-30T21:31:22.356Z,51.30
2019-03-30T21:33:49.071Z,47.38
2019-03-30T21:36:15.828Z,71.40
2019-03-30T21:38:42.426Z,83.65
2019-03-30T21:41:09.110Z,49.13
2019-03-30T21:43:35.768Z,50.70
2019-03-30T21:46:02.418Z,53.68
2019-03-30T21:48:29.153Z,50.90
2019-03-30T21:50:55.874Z,46.88
2019-03-30T21:53:22.543Z,49.75
2019-03-30T21:55:50.307Z,50.30
2019-03-30T21:58:18.034Z,47.98
2019-03-30T22:00:44.624Z,44.65
2019-03-30T22:03:11.322Z,44.42
2019-03-30T22:05:37.920Z,48.08
2019-03-30T22:08:05.236Z,43.45
2019-03-30T22:10:31.960Z,48.73
2019-03-30T22:12:58.649Z,47.10
2019-03-30T22:15:26.604Z,43.80
2019-03-30T22:17:53.323Z,48.65
2019-03-30T22:20:21.418Z,46.42
2019-03-30T22:22:48.398Z,43.68
2019-03-30T22:25:16.228Z,41.05
2019-03-30T22:27:42.836Z,47.10
2019-03-30T22:30:23.656Z,46.25
2019-03-30T22:32:38.152Z,43.13
2019-03-30T22:35:05.003Z,42.73
2019-03-30T22:37:32.651Z,40.38
2019-03-30T22:39:59.351Z,44.33
2019-03-30T22:42:25.964Z,43.05
2019-03-30T22:44:52.682Z,43.23
2019-03-30T22:47:19.337Z,44.67
2019-03-30T22:49:46.044Z,40.00
2019-03-30T22:52:12.795Z,37.48
2019-03-30T22:54:40.492Z,42.73
2019-03-30T22:57:07.135Z,38.73
2019-03-30T22:59:33.822Z,37.58
2019-03-30T23:02:00.556Z,39.95
2019-03-30T23:04:27.203Z,36.77
2019-03-30T23:06:53.860Z,42.05
2019-03-30T23:09:20.544Z,42.43
2019-03-30T23:11:47.166Z,35.75
2019-03-30T23:14:13.827Z,42.17
2019-03-30T23:16:41.712Z,39.05
2019-03-30T23:19:08.354Z,37.48
2019-03-30T23:21:34.997Z,42.55
2019-03-30T23:24:01.705Z,44.05
2019-03-30T23:26:28.336Z,46.88
2019-03-30T23:28:59.299Z,40.98
2019-03-30T23:31:24.742Z,41.75
2019-03-30T23:33:51.356Z,43.13
2019-03-30T23:36:19.106Z,39.92
2019-03-30T23:38:46.776Z,34.65
2019-03-30T23:41:13.517Z,39.73
2019-03-30T23:43:40.246Z,38.67
2019-03-30T23:46:06.986Z,34.58
2019-03-30T23:48:33.602Z,41.33
2019-03-30T23:51:00.266Z,39.18
2019-03-30T23:53:27.004Z,33.63
2019-03-30T23:55:53.755Z,37.35
2019-03-30T23:58:20.449Z,38.28
